TLSO2: Arkansas River, Tulsa, OK

                                SHEF ID:       TLSO2     Arkansas River at Tulsa, OK
STATION TYPE: Stream Gauge
Regulating: Stage = 15.00, Flow = 96489

PRECIP STAGE STAGE(2) RIV-FLOW WTR-TEMP DIS-OXY BAT-LOAD
in ft ft cfs F mg/l volt
Ccp-Rev Ccp-Rev Ccp-Rev Ccp-Rev Ccp-Rev Ccp-Rev Ccp-Rev
(America/Chicago)
03/20 00:00 0.00 4.69 ---- 5634 58.50 11.61 ----
03/20 01:00 0.00 4.68 ---- 5581 57.87 11.15 ----
03/20 02:00 0.00 4.68 ---- 5581 56.98 10.63 ----
03/20 03:00 0.00 4.68 ---- 5581 57.20 10.40 ----
03/20 04:00 0.00 4.68 ---- 5581 55.67 9.83 ----
03/20 05:00 0.00 4.68 ---- 5581 54.95 9.53 ----
03/20 06:00 0.00 4.68 ---- 5581 55.27 9.43 ----
03/20 07:00 0.00 4.68 ---- 5581 54.28 9.24 ----
03/20 08:00 0.00 4.68 ---- 5581 53.85 9.21 ----
03/20 09:00 0.00 4.68 ---- 5581 53.76 9.32 ----
03/20 10:00 0.00 4.67 ---- 5529 54.27 9.53 ----
03/20 11:00 0.00 4.69 ---- 5634 54.54 10.15 ----
03/20 12:00 0.00 4.69 ---- 5634 55.40 10.83 ----
03/20 13:00 0.00 4.66 ---- 5477 56.34 11.38 ----
03/20 14:00 0.00 4.67 ---- 5529 57.67 12.19 ----
03/20 15:00 0.00 4.67 ---- 5529 58.62 12.84 ----
03/20 16:00 0.00 4.68 ---- 5581 59.59 13.06 ----
03/20 17:00 0.00 4.66 ---- 5477 60.44 13.22 ----
03/20 18:00 0.00 4.65 ---- 5425 61.25 13.79 ----
03/20 19:00 0.00 4.70 ---- 5687 61.43 13.46 ----
03/20 20:00 0.00 4.70 ---- 5687 61.50 13.27 ----
03/20 21:00 0.00 4.70 ---- 5687 61.38 12.62 ----
03/20 22:00 0.00 4.67 ---- 5529 60.73 12.12 ----
03/20 23:00 0.00 4.69 ---- 5634 60.22 11.87 ----
Data processed at Sat 21Mar2026 04:48 GMT

NOTICE: If you are parsing this page

Please convert to using our Data API. Starting early 2026 we will be migrating to: https://water.usace.army.mil with modern pages rendered in JavaScript. When this migration completes you will no longer be able to scrape this page! CWMSDataAPI (CDA)

Timeseries IDs (TSIDs)

TSIDs used from left to right in the data table
TULA.Precip-Inc.Total.1Hour.1Hour.Ccp-Rev
TULA.Stage.Inst.1Hour.0.Ccp-Rev
TULA.Stage-Alt.Inst.1Hour.0.Ccp-Rev
TULA.Flow.Inst.1Hour.0.Ccp-Rev
TULA.Temp-Water.Inst.1Hour.0.Ccp-Rev
TULA.Conc-DO.Inst.1Hour.0.Ccp-Rev
TULA.Volt-Battery Load.Inst.1Hour.0.Ccp-Rev

                            

All information presented herein is the property of the government of the United States of America and may be revised or deleted at any time without prior notice. Dissemination of this information without the expressed written consent of the Public Affairs Office, Tulsa District U.S. Army Corps of Engineers is strictly prohibited. These data are gathered electronically and, as presented, have NOT undergone any form of quality control. These data are NOT guaranteed to be valid or correct.